createdAt,value
2023-05-05T00:00:13.330Z,100807.83
2023-05-05T00:02:18.349Z,100808.59
2023-05-05T00:04:09.822Z,100811.27
2023-05-05T00:06:01.363Z,100808.43
2023-05-05T00:07:52.806Z,100808.96
2023-05-05T00:09:44.524Z,100805.23
2023-05-05T00:11:35.971Z,100806.36
2023-05-05T00:13:27.136Z,100809.75
2023-05-05T00:15:19.117Z,100806.02
2023-05-05T00:17:10.538Z,100802.80
2023-05-05T00:19:01.603Z,100805.71
2023-05-05T00:20:52.790Z,100810.59
2023-05-05T00:22:44.443Z,100809.09
2023-05-05T00:24:36.021Z,100806.11
2023-05-05T00:26:27.519Z,100806.26
2023-05-05T00:28:19.156Z,100804.44
2023-05-05T00:30:10.765Z,100802.85
2023-05-05T00:32:03.459Z,100796.52
2023-05-05T00:33:54.871Z,100793.80
2023-05-05T00:35:46.323Z,100791.11
2023-05-05T00:37:37.603Z,100787.50
2023-05-05T00:39:29.052Z,100791.23
2023-05-05T00:41:20.428Z,100792.52
2023-05-05T00:43:13.008Z,100790.83
2023-05-05T00:45:04.566Z,100788.70
2023-05-05T00:46:56.592Z,100788.74
2023-05-05T00:48:48.205Z,100779.71
2023-05-05T00:50:39.950Z,100782.83
2023-05-05T00:52:31.545Z,100784.33
2023-05-05T00:54:23.166Z,100782.36
2023-05-05T00:56:15.964Z,100783.35
2023-05-05T00:58:08.000Z,100787.67
2023-05-05T00:59:59.758Z,100781.88
2023-05-05T01:01:51.367Z,100777.65
2023-05-05T01:03:43.278Z,100779.23
2023-05-05T01:05:59.000Z,100772.61
2023-05-05T01:09:02.254Z,100777.19
2023-05-05T01:10:58.217Z,100770.21
2023-05-05T01:13:08.133Z,100776.61
2023-05-05T01:15:11.172Z,100774.90
2023-05-05T01:17:11.417Z,100776.35
2023-05-05T01:19:17.476Z,100775.21
2023-05-05T01:21:31.741Z,100771.09
2023-05-05T01:24:00.932Z,100770.39
2023-05-05T01:26:12.776Z,100767.03
2023-05-05T01:28:24.777Z,100767.80
2023-05-05T01:30:33.397Z,100763.59
2023-05-05T01:32:37.183Z,100764.36
2023-05-05T01:34:40.513Z,100761.25
2023-05-05T01:37:15.618Z,100760.15
2023-05-05T01:39:09.321Z,100756.63
2023-05-05T01:41:08.233Z,100753.80
2023-05-05T01:43:01.137Z,100754.85
2023-05-05T01:44:53.484Z,100756.40
2023-05-05T01:46:44.949Z,100754.84
2023-05-05T01:48:38.918Z,100755.07
2023-05-05T01:50:32.306Z,100753.59
2023-05-05T01:52:24.128Z,100757.36
2023-05-05T01:54:17.574Z,100752.77
2023-05-05T01:56:10.285Z,100751.27
2023-05-05T01:58:03.624Z,100752.52
2023-05-05T01:59:56.255Z,100751.83
2023-05-05T02:01:49.039Z,100751.76
2023-05-05T02:03:42.063Z,100753.21
2023-05-05T02:05:35.068Z,100755.98
2023-05-05T02:07:27.836Z,100753.23
2023-05-05T02:09:19.680Z,100752.45
2023-05-05T02:20:27.255Z,100742.35
2023-05-05T02:22:19.147Z,100746.40
2023-05-05T02:24:11.528Z,100746.38
2023-05-05T02:26:05.176Z,100745.96
2023-05-05T02:27:58.463Z,100746.52
2023-05-05T02:29:57.139Z,100742.08
2023-05-05T02:31:56.073Z,100743.54
2023-05-05T02:33:49.591Z,100744.92
2023-05-05T02:35:42.354Z,100743.31
2023-05-05T02:37:34.338Z,100740.41
2023-05-05T02:39:31.417Z,100743.15
2023-05-05T02:41:24.826Z,100738.59
2023-05-05T02:43:19.712Z,100738.55
2023-05-05T02:45:13.339Z,100740.73
2023-05-05T02:47:05.439Z,100739.75
2023-05-05T02:48:59.768Z,100740.10
2023-05-05T02:50:51.035Z,100742.96
2023-05-05T02:52:43.208Z,100739.70
2023-05-05T02:54:34.947Z,100743.27
2023-05-05T02:56:34.722Z,100748.23
2023-05-05T02:58:46.884Z,100746.19
2023-05-05T03:00:44.757Z,100752.14
2023-05-05T03:03:00.720Z,100753.06
2023-05-05T03:04:56.964Z,100753.33
2023-05-05T03:06:51.253Z,100759.48
2023-05-05T03:08:46.029Z,100759.39
2023-05-05T03:10:48.078Z,100763.67
2023-05-05T03:12:49.914Z,100767.75
2023-05-05T03:14:43.380Z,100766.90
2023-05-05T03:16:41.383Z,100767.09
2023-05-05T03:18:37.758Z,100763.98
2023-05-05T03:20:29.752Z,100771.88
2023-05-05T03:22:21.264Z,100770.66
2023-05-05T03:24:19.874Z,100772.92
2023-05-05T03:26:11.334Z,100778.24
2023-05-05T03:28:02.881Z,100773.05
2023-05-05T03:29:54.911Z,100774.65
2023-05-05T03:31:46.485Z,100775.39
2023-05-05T03:33:38.386Z,100775.36
2023-05-05T03:35:30.396Z,100774.71
2023-05-05T03:37:22.036Z,100773.91
2023-05-05T03:39:13.470Z,100773.66
2023-05-05T03:41:04.865Z,100771.56
2023-05-05T03:42:56.602Z,100775.86
2023-05-05T03:44:47.988Z,100773.42
2023-05-05T03:46:39.923Z,100771.71
2023-05-05T03:48:31.820Z,100769.95
2023-05-05T03:50:24.421Z,100772.21
2023-05-05T03:52:16.376Z,100771.35
2023-05-05T03:54:08.212Z,100773.95
2023-05-05T03:55:59.472Z,100772.59
2023-05-05T03:57:51.109Z,100776.59
2023-05-05T03:59:42.756Z,100772.52
2023-05-05T04:01:35.758Z,100774.54
2023-05-05T04:03:27.687Z,100771.04
2023-05-05T04:05:19.974Z,100768.97
2023-05-05T04:07:11.550Z,100769.23
2023-05-05T04:09:03.537Z,100772.98
2023-05-05T04:10:57.480Z,100775.85
2023-05-05T04:12:48.917Z,100780.44
2023-05-05T04:14:41.021Z,100783.58
2023-05-05T04:16:32.639Z,100783.69
2023-05-05T04:18:24.386Z,100785.38
2023-05-05T04:20:15.953Z,100778.33
2023-05-05T04:22:07.534Z,100781.29
2023-05-05T04:23:58.964Z,100780.46
2023-05-05T04:25:50.220Z,100777.85
2023-05-05T04:27:42.020Z,100777.35
2023-05-05T04:29:33.647Z,100779.50
2023-05-05T04:31:25.391Z,100778.26
2023-05-05T04:33:17.169Z,100779.23
2023-05-05T04:35:09.165Z,100773.52
2023-05-05T04:37:01.232Z,100776.64
2023-05-05T04:38:52.565Z,100781.81
2023-05-05T04:40:44.245Z,100790.79
2023-05-05T04:42:36.666Z,100788.48
2023-05-05T04:44:28.194Z,100791.42
2023-05-05T04:46:19.589Z,100789.66
2023-05-05T04:48:11.418Z,100790.23
2023-05-05T04:50:03.337Z,100788.84
2023-05-05T04:51:55.563Z,100788.70
2023-05-05T04:53:47.005Z,100793.38
2023-05-05T04:55:41.520Z,100794.59
2023-05-05T04:57:33.101Z,100792.27
2023-05-05T04:59:24.757Z,100790.58
2023-05-05T05:01:16.880Z,100791.56
2023-05-05T05:03:08.541Z,100795.59
2023-05-05T05:05:00.168Z,100793.18
2023-05-05T05:06:51.544Z,100795.14
2023-05-05T05:08:43.153Z,100800.96
2023-05-05T05:10:36.730Z,100800.69
2023-05-05T05:12:28.372Z,100800.02
2023-05-05T05:14:19.966Z,100798.20
2023-05-05T05:16:11.740Z,100800.14
2023-05-05T05:18:03.333Z,100801.38
2023-05-05T05:19:56.250Z,100801.95
2023-05-05T05:21:48.082Z,100803.65
2023-05-05T05:23:39.693Z,100801.44
2023-05-05T05:25:31.306Z,100803.49
2023-05-05T05:27:23.061Z,100802.92
2023-05-05T05:29:14.416Z,100804.73
2023-05-05T05:31:06.922Z,100808.26
2023-05-05T05:32:58.611Z,100808.42
2023-05-05T05:34:50.446Z,100809.27
2023-05-05T05:36:42.121Z,100810.54
2023-05-05T05:38:33.557Z,100809.70
2023-05-05T05:40:25.161Z,100811.08
2023-05-05T05:42:16.603Z,100813.41
2023-05-05T05:44:08.141Z,100819.80
2023-05-05T05:45:59.644Z,100821.30
2023-05-05T05:47:52.184Z,100819.66
2023-05-05T05:49:43.879Z,100824.40
2023-05-05T05:51:35.322Z,100828.86
2023-05-05T05:53:26.968Z,100824.41
2023-05-05T05:55:18.627Z,100826.88
2023-05-05T05:57:10.071Z,100831.10
2023-05-05T05:59:01.876Z,100832.95
2023-05-05T06:00:53.460Z,100830.73
2023-05-05T06:02:45.160Z,100830.89
2023-05-05T06:04:36.799Z,100829.59
2023-05-05T06:06:28.344Z,100831.27
2023-05-05T06:08:19.859Z,100830.75
2023-05-05T06:10:26.578Z,100830.51
2023-05-05T06:12:19.764Z,100830.60
2023-05-05T06:14:11.551Z,100833.64
2023-05-05T06:16:03.439Z,100833.59
2023-05-05T06:17:55.943Z,100829.61
2023-05-05T06:19:47.949Z,100831.84
2023-05-05T06:21:39.567Z,100834.01
2023-05-05T06:23:31.110Z,100833.45
2023-05-05T06:25:22.970Z,100832.04
2023-05-05T06:27:14.528Z,100833.42
2023-05-05T06:29:06.874Z,100835.50
2023-05-05T06:30:58.401Z,100836.02
2023-05-05T06:32:50.265Z,100836.84
2023-05-05T06:34:43.415Z,100833.59
2023-05-05T06:36:35.817Z,100830.11
2023-05-05T06:38:27.198Z,100839.39
2023-05-05T06:40:18.776Z,100839.30
2023-05-05T06:42:10.603Z,100832.13
2023-05-05T06:44:02.124Z,100836.36
2023-05-05T06:45:53.975Z,100835.48
2023-05-05T06:47:45.509Z,100835.85
2023-05-05T06:49:37.353Z,100836.58
2023-05-05T06:51:29.869Z,100830.02
2023-05-05T06:53:21.259Z,100835.36
2023-05-05T06:55:13.135Z,100833.58
2023-05-05T06:57:05.011Z,100831.25
2023-05-05T06:58:56.851Z,100828.30
2023-05-05T07:00:48.518Z,100827.68
2023-05-05T07:02:41.265Z,100825.38
2023-05-05T07:04:32.758Z,100824.20
2023-05-05T07:06:24.127Z,100827.36
2023-05-05T07:08:16.204Z,100829.73
2023-05-05T07:10:09.950Z,100829.30
2023-05-05T07:12:02.579Z,100831.02
2023-05-05T07:13:54.287Z,100832.04
2023-05-05T07:15:47.046Z,100834.13
2023-05-05T07:17:41.782Z,100832.07
2023-05-05T07:19:35.737Z,100828.02
2023-05-05T07:21:47.733Z,100829.17
2023-05-05T07:23:40.905Z,100829.47
2023-05-05T07:25:32.677Z,100828.25
2023-05-05T07:27:24.443Z,100827.55
2023-05-05T07:29:16.727Z,100823.08
2023-05-05T07:31:09.903Z,100830.00
2023-05-05T07:33:01.911Z,100824.35
2023-05-05T07:34:53.722Z,100828.53
2023-05-05T07:37:07.294Z,100828.70
2023-05-05T07:39:44.400Z,100824.12
2023-05-05T07:41:39.235Z,100822.39
2023-05-05T07:43:31.141Z,100819.48
2023-05-05T07:45:22.854Z,100815.33
2023-05-05T07:47:14.655Z,100816.58
2023-05-05T07:49:06.889Z,100814.64
2023-05-05T07:50:58.597Z,100820.04
2023-05-05T07:52:56.390Z,100817.98
2023-05-05T07:54:58.077Z,100820.70
2023-05-05T07:56:49.618Z,100814.94
2023-05-05T07:58:42.347Z,100813.31
2023-05-05T08:00:34.247Z,100814.16
2023-05-05T08:02:25.879Z,100812.97
2023-05-05T08:04:17.856Z,100814.11
2023-05-05T08:06:10.085Z,100815.33
2023-05-05T08:08:01.562Z,100816.22
2023-05-05T08:09:53.310Z,100815.02
2023-05-05T08:11:45.153Z,100811.40
2023-05-05T08:13:36.752Z,100809.67
2023-05-05T08:15:28.197Z,100813.15
2023-05-05T08:17:19.738Z,100814.38
2023-05-05T08:19:21.570Z,100814.69
2023-05-05T08:21:19.342Z,100815.02
2023-05-05T08:23:10.953Z,100819.70
2023-05-05T08:25:02.759Z,100817.00
2023-05-05T08:26:55.575Z,100820.81
2023-05-05T08:28:47.486Z,100817.69
2023-05-05T08:30:39.276Z,100814.39
2023-05-05T08:32:31.785Z,100817.45
2023-05-05T08:34:23.505Z,100816.77
2023-05-05T08:36:15.503Z,100817.19
2023-05-05T08:38:06.970Z,100818.63
2023-05-05T08:39:58.731Z,100819.09
2023-05-05T08:41:50.237Z,100814.09
2023-05-05T08:43:45.687Z,100815.39
2023-05-05T08:45:40.915Z,100817.83
2023-05-05T08:47:32.941Z,100817.45
2023-05-05T08:49:25.441Z,100815.44
2023-05-05T08:51:19.514Z,100813.73
2023-05-05T08:53:16.013Z,100811.09
2023-05-05T08:55:19.808Z,100807.15
2023-05-05T08:57:12.718Z,100809.85
2023-05-05T08:59:04.582Z,100812.02
2023-05-05T09:00:56.944Z,100808.86
2023-05-05T09:02:49.067Z,100807.00
2023-05-05T09:04:41.018Z,100811.96
2023-05-05T09:06:33.786Z,100804.98
2023-05-05T09:08:26.068Z,100804.30
2023-05-05T09:10:18.461Z,100801.88
2023-05-05T09:12:10.005Z,100803.11
2023-05-05T09:14:02.105Z,100798.54
2023-05-05T09:15:53.746Z,100799.30
2023-05-05T09:17:46.834Z,100800.95
2023-05-05T09:20:07.336Z,100801.06
2023-05-05T09:21:59.614Z,100796.50
2023-05-05T09:24:11.511Z,100795.77
2023-05-05T09:26:05.287Z,100792.38
2023-05-05T09:27:57.150Z,100788.97
2023-05-05T09:29:49.807Z,100790.81
2023-05-05T09:31:41.385Z,100790.31
2023-05-05T09:33:32.947Z,100786.14
2023-05-05T09:35:24.392Z,100790.84
2023-05-05T09:37:27.519Z,100789.91
2023-05-05T09:39:20.613Z,100788.69
2023-05-05T09:41:12.235Z,100783.86
2023-05-05T09:43:04.129Z,100786.17
2023-05-05T09:44:59.635Z,100782.56
2023-05-05T09:46:55.306Z,100783.89
2023-05-05T09:48:46.827Z,100785.34
2023-05-05T09:50:44.793Z,100786.15
2023-05-05T09:52:36.763Z,100793.65
2023-05-05T09:54:30.130Z,100789.95
2023-05-05T09:56:21.679Z,100788.61
2023-05-05T09:58:20.814Z,100792.11
2023-05-05T10:00:37.684Z,100792.96
2023-05-05T10:02:32.920Z,100790.64
2023-05-05T10:04:28.482Z,100788.27
2023-05-05T10:06:22.112Z,100787.98
2023-05-05T10:08:13.749Z,100789.34
2023-05-05T10:10:11.051Z,100793.05
2023-05-05T10:12:05.605Z,100787.48
2023-05-05T10:13:57.500Z,100785.46
2023-05-05T10:15:51.495Z,100789.06
2023-05-05T10:18:02.381Z,100786.48
2023-05-05T10:20:01.190Z,100781.45
2023-05-05T10:21:54.974Z,100779.52
2023-05-05T10:23:58.094Z,100778.58
2023-05-05T10:26:02.906Z,100777.21
2023-05-05T10:27:56.512Z,100776.50
2023-05-05T10:30:07.389Z,100775.60
2023-05-05T10:32:27.184Z,100770.52
2023-05-05T10:34:29.854Z,100770.01
2023-05-05T10:36:22.060Z,100772.73
2023-05-05T10:38:14.523Z,100772.91
2023-05-05T10:40:08.352Z,100772.75
2023-05-05T10:42:04.472Z,100769.30
2023-05-05T10:44:00.426Z,100765.95
2023-05-05T10:45:53.767Z,100764.03
2023-05-05T10:47:45.845Z,100758.67
2023-05-05T10:49:57.521Z,100765.26
2023-05-05T10:52:10.269Z,100760.83
2023-05-05T10:54:29.436Z,100762.02
2023-05-05T10:56:33.032Z,100761.31
2023-05-05T10:58:51.172Z,100762.40
2023-05-05T11:00:50.491Z,100757.91
2023-05-05T11:02:42.256Z,100756.38
2023-05-05T11:04:33.688Z,100753.61
2023-05-05T11:06:25.421Z,100750.75
2023-05-05T11:08:26.985Z,100751.17
2023-05-05T11:10:20.770Z,100749.58
2023-05-05T11:12:13.896Z,100751.89
2023-05-05T11:14:20.149Z,100749.30
2023-05-05T11:16:44.848Z,100747.75
2023-05-05T11:18:38.326Z,100736.11
2023-05-05T11:20:36.279Z,100734.45
2023-05-05T11:22:28.980Z,100728.89
2023-05-05T11:24:30.406Z,100723.20
2023-05-05T11:26:49.411Z,100728.23
2023-05-05T11:29:13.991Z,100729.00
2023-05-05T11:31:35.924Z,100715.15
2023-05-05T11:34:31.390Z,100706.95
2023-05-05T11:36:53.566Z,100714.85
2023-05-05T11:39:23.455Z,100706.95
2023-05-05T11:41:33.486Z,100711.14
2023-05-05T11:43:25.380Z,100712.89
2023-05-05T11:45:24.085Z,100708.01
2023-05-05T11:47:15.852Z,100711.41
2023-05-05T11:49:09.473Z,100709.38
2023-05-05T11:51:03.709Z,100707.77
2023-05-05T11:52:55.203Z,100713.14
2023-05-05T11:54:50.863Z,100707.94
2023-05-05T11:56:53.633Z,100710.74
2023-05-05T11:58:46.784Z,100710.77
2023-05-05T12:00:38.304Z,100707.73
2023-05-05T12:02:31.509Z,100705.41
2023-05-05T12:04:23.419Z,100705.38
2023-05-05T12:06:15.182Z,100712.45
2023-05-05T12:08:06.891Z,100703.16
2023-05-05T12:09:58.252Z,100705.33
2023-05-05T12:11:56.194Z,100700.09
2023-05-05T12:13:47.731Z,100698.56
2023-05-05T12:15:39.049Z,100695.38
2023-05-05T12:17:43.234Z,100695.02
2023-05-05T12:19:36.675Z,100696.95
2023-05-05T12:21:28.117Z,100689.55
2023-05-05T12:23:20.321Z,100687.91
2023-05-05T12:25:12.220Z,100693.45
2023-05-05T12:27:11.872Z,100688.44
2023-05-05T12:29:03.238Z,100687.13
2023-05-05T12:30:59.052Z,100684.92
2023-05-05T12:32:51.416Z,100687.85
2023-05-05T12:34:42.867Z,100682.69
2023-05-05T12:36:34.936Z,100693.73
2023-05-05T12:38:26.597Z,100686.70
2023-05-05T12:40:42.624Z,100687.04
2023-05-05T12:42:39.039Z,100682.39
2023-05-05T12:44:37.765Z,100681.86
2023-05-05T12:46:29.871Z,100679.75
2023-05-05T12:48:22.489Z,100685.59
2023-05-05T12:50:13.782Z,100684.46
2023-05-05T12:52:05.669Z,100680.73
2023-05-05T12:54:08.226Z,100683.25
2023-05-05T12:55:59.560Z,100685.45
2023-05-05T12:58:06.815Z,100677.88
2023-05-05T12:59:58.570Z,100676.17
2023-05-05T13:01:52.818Z,100672.05
2023-05-05T13:03:44.863Z,100668.23
2023-05-05T13:05:36.746Z,100671.70
2023-05-05T13:07:28.213Z,100670.80
2023-05-05T13:09:34.083Z,100666.17
2023-05-05T13:11:25.359Z,100659.81
2023-05-05T13:13:17.486Z,100658.73
2023-05-05T13:15:10.235Z,100655.59
2023-05-05T13:17:02.085Z,100657.08
2023-05-05T13:18:53.951Z,100657.17
2023-05-05T13:20:45.580Z,100654.41
2023-05-05T13:22:37.293Z,100650.54
2023-05-05T13:24:46.398Z,100651.58
2023-05-05T13:26:41.447Z,100648.77
2023-05-05T13:28:33.323Z,100650.64
2023-05-05T13:30:25.109Z,100653.83
2023-05-05T13:32:16.688Z,100652.48
2023-05-05T13:34:08.201Z,100649.52
2023-05-05T13:35:59.721Z,100642.72
2023-05-05T13:37:51.499Z,100644.85
2023-05-05T13:39:43.313Z,100643.71
2023-05-05T13:41:35.148Z,100632.58
2023-05-05T13:43:26.662Z,100635.80
2023-05-05T13:45:19.833Z,100631.11
2023-05-05T13:47:11.446Z,100624.25
2023-05-05T13:49:03.330Z,100620.66
2023-05-05T13:50:55.009Z,100622.27
2023-05-05T13:52:46.372Z,100614.72
2023-05-05T13:54:38.097Z,100617.30
2023-05-05T13:56:30.054Z,100616.27
2023-05-05T13:58:22.075Z,100611.49
2023-05-05T14:00:14.817Z,100613.07
2023-05-05T14:02:07.767Z,100605.54
2023-05-05T14:03:59.452Z,100604.64
2023-05-05T14:05:51.013Z,100600.80
2023-05-05T14:07:42.912Z,100601.45
2023-05-05T14:09:34.712Z,100599.70
2023-05-05T14:11:26.365Z,100600.23
2023-05-05T14:13:17.746Z,100596.63
2023-05-05T14:15:09.716Z,100595.61
2023-05-05T14:17:01.664Z,100594.52
2023-05-05T14:18:53.371Z,100594.38
2023-05-05T14:20:44.655Z,100582.67
2023-05-05T14:22:36.463Z,100586.40
2023-05-05T14:24:27.812Z,100594.38
2023-05-05T14:26:19.171Z,100590.18
2023-05-05T14:28:11.079Z,100594.15
2023-05-05T14:30:02.736Z,100590.67
2023-05-05T14:31:54.638Z,100590.77
2023-05-05T14:33:46.154Z,100593.16
2023-05-05T14:35:37.865Z,100590.46
2023-05-05T14:37:29.684Z,100588.04
2023-05-05T14:39:21.502Z,100585.98
2023-05-05T14:41:12.769Z,100589.87
2023-05-05T14:43:04.556Z,100585.54
2023-05-05T14:44:56.291Z,100582.14
2023-05-05T14:46:49.741Z,100581.94
2023-05-05T14:48:42.973Z,100580.33
2023-05-05T14:50:34.797Z,100581.80
2023-05-05T14:52:26.868Z,100583.59
2023-05-05T14:54:27.223Z,100579.17
2023-05-05T14:56:22.525Z,100584.23
2023-05-05T14:58:14.111Z,100580.05
2023-05-05T15:00:09.449Z,100578.31
2023-05-05T15:02:01.399Z,100579.30
2023-05-05T15:03:54.057Z,100582.31
2023-05-05T15:05:45.721Z,100576.84
2023-05-05T15:07:37.559Z,100572.47
2023-05-05T15:09:28.990Z,100575.88
2023-05-05T15:11:20.610Z,100570.31
2023-05-05T15:13:12.528Z,100568.67
2023-05-05T15:15:04.521Z,100568.98
2023-05-05T15:16:56.019Z,100566.98
2023-05-05T15:18:47.698Z,100564.05
2023-05-05T15:20:39.577Z,100560.15
2023-05-05T15:22:30.984Z,100555.60
2023-05-05T15:24:22.272Z,100554.60
2023-05-05T15:26:13.974Z,100554.57
2023-05-05T15:28:05.734Z,100556.08
2023-05-05T15:29:57.421Z,100557.09
2023-05-05T15:31:48.918Z,100558.50
2023-05-05T15:42:52.018Z,100560.84
2023-05-05T15:44:43.484Z,100559.48
2023-05-05T15:46:34.906Z,100558.94
2023-05-05T15:48:26.445Z,100556.16
2023-05-05T15:50:18.285Z,100555.50
2023-05-05T15:52:10.245Z,100558.34
2023-05-05T15:54:02.040Z,100557.49
2023-05-05T15:55:53.853Z,100553.91
2023-05-05T15:57:45.026Z,100554.52
2023-05-05T15:59:36.516Z,100554.99
2023-05-05T16:01:28.068Z,100553.77
2023-05-05T16:03:20.082Z,100556.81
2023-05-05T16:05:12.395Z,100547.27
2023-05-05T16:07:03.757Z,100550.71
2023-05-05T16:08:58.073Z,100548.02
2023-05-05T16:10:49.928Z,100550.23
2023-05-05T16:12:41.855Z,100552.09
2023-05-05T16:14:33.698Z,100545.95
2023-05-05T16:16:25.601Z,100549.66
2023-05-05T16:18:16.932Z,100543.35
2023-05-05T16:20:09.062Z,100537.62
2023-05-05T16:22:01.647Z,100534.63
2023-05-05T16:23:52.917Z,100533.36
2023-05-05T16:25:44.984Z,100525.09
2023-05-05T16:27:36.688Z,100534.54
2023-05-05T16:29:28.260Z,100536.35
2023-05-05T16:31:19.680Z,100536.45
2023-05-05T16:33:11.326Z,100535.33
2023-05-05T16:35:03.313Z,100531.70
2023-05-05T16:36:55.114Z,100534.86
2023-05-05T16:38:46.744Z,100528.48
2023-05-05T16:40:38.538Z,100526.31
2023-05-05T16:42:30.148Z,100528.25
2023-05-05T16:44:21.811Z,100529.29
2023-05-05T16:46:13.205Z,100530.75
2023-05-05T16:48:07.441Z,100530.86
2023-05-05T16:50:00.258Z,100531.83
2023-05-05T16:51:53.658Z,100527.77
2023-05-05T16:53:46.615Z,100531.86
2023-05-05T16:55:39.114Z,100529.04
2023-05-05T16:57:31.472Z,100529.17
2023-05-05T16:59:22.816Z,100528.31
2023-05-05T17:01:15.083Z,100527.54
2023-05-05T17:03:06.829Z,100530.69
2023-05-05T17:04:58.545Z,100536.60
2023-05-05T17:06:51.079Z,100535.13
2023-05-05T17:08:42.914Z,100534.80
2023-05-05T17:10:34.313Z,100537.14
2023-05-05T17:12:25.904Z,100532.98
2023-05-05T17:14:17.602Z,100538.99
2023-05-05T17:16:09.332Z,100542.95
2023-05-05T17:18:00.932Z,100535.06
2023-05-05T17:19:52.791Z,100545.41
2023-05-05T17:21:44.246Z,100543.84
2023-05-05T17:23:36.233Z,100545.27
2023-05-05T17:25:28.344Z,100544.61
2023-05-05T17:27:19.838Z,100546.20
2023-05-05T17:29:13.088Z,100548.36
2023-05-05T17:31:05.815Z,100550.17
2023-05-05T17:32:57.641Z,100552.21
2023-05-05T17:34:49.057Z,100550.87
2023-05-05T17:36:40.562Z,100558.54
2023-05-05T17:38:32.668Z,100555.33
2023-05-05T17:40:25.206Z,100557.35
2023-05-05T17:42:22.718Z,100557.14
2023-05-05T17:44:14.585Z,100558.84
2023-05-05T17:46:06.454Z,100555.82
2023-05-05T17:47:57.924Z,100552.48
2023-05-05T17:49:50.126Z,100553.35
2023-05-05T17:51:41.875Z,100555.66
2023-05-05T17:53:33.593Z,100556.37
2023-05-05T17:55:25.079Z,100556.41
2023-05-05T17:57:18.186Z,100557.76
2023-05-05T17:59:09.578Z,100553.92
2023-05-05T18:01:01.298Z,100554.10
2023-05-05T18:02:53.152Z,100560.02
2023-05-05T18:04:45.823Z,100559.23
2023-05-05T18:06:37.264Z,100561.98
2023-05-05T18:08:28.820Z,100560.90
2023-05-05T18:10:20.785Z,100561.38
2023-05-05T18:12:12.271Z,100562.30
2023-05-05T18:14:04.059Z,100561.36
2023-05-05T18:15:56.618Z,100562.48
2023-05-05T18:17:48.170Z,100562.42
2023-05-05T18:19:43.075Z,100558.35
2023-05-05T18:21:34.308Z,100561.60
2023-05-05T18:23:26.098Z,100561.77
2023-05-05T18:25:19.184Z,100570.91
2023-05-05T18:27:10.760Z,100575.23
2023-05-05T18:29:02.575Z,100581.78
2023-05-05T18:30:54.000Z,100583.30
2023-05-05T18:32:45.826Z,100593.26
2023-05-05T18:34:37.450Z,100596.03
2023-05-05T18:36:29.123Z,100599.65
2023-05-05T18:38:21.497Z,100604.93
2023-05-05T18:40:13.559Z,100601.86
2023-05-05T18:42:05.499Z,100607.38
2023-05-05T18:43:57.184Z,100611.05
2023-05-05T18:45:48.651Z,100609.23
2023-05-05T18:47:41.549Z,100606.08
2023-05-05T18:49:33.476Z,100615.30
2023-05-05T18:51:25.061Z,100618.77
2023-05-05T18:53:17.855Z,100616.84
2023-05-05T18:55:09.790Z,100616.41
2023-05-05T18:57:01.665Z,100615.95
2023-05-05T18:58:53.421Z,100614.88
2023-05-05T19:00:44.815Z,100615.42
2023-05-05T19:02:36.525Z,100614.63
2023-05-05T19:04:31.577Z,100612.11
2023-05-05T19:06:23.277Z,100618.19
2023-05-05T19:08:15.022Z,100617.70
2023-05-05T19:10:07.602Z,100617.88
2023-05-05T19:11:58.952Z,100619.25
2023-05-05T19:13:51.433Z,100612.26
2023-05-05T19:15:43.333Z,100609.25
2023-05-05T19:17:35.258Z,100606.27
2023-05-05T19:19:26.903Z,100611.13
2023-05-05T19:21:18.423Z,100612.84
2023-05-05T19:23:10.037Z,100607.34
2023-05-05T19:25:01.572Z,100610.23
2023-05-05T19:26:53.439Z,100611.86
2023-05-05T19:28:44.947Z,100614.96
2023-05-05T19:30:36.952Z,100614.38
2023-05-05T19:32:29.089Z,100612.61
2023-05-05T19:34:21.344Z,100612.20
2023-05-05T19:36:13.000Z,100606.16
2023-05-05T19:38:04.493Z,100609.36
2023-05-05T19:39:56.557Z,100606.59
2023-05-05T19:41:48.324Z,100608.57
2023-05-05T19:43:39.847Z,100612.48
2023-05-05T19:45:31.990Z,100609.28
2023-05-05T19:47:23.621Z,100604.59
2023-05-05T19:49:15.127Z,100605.35
